sensor_id;sensor_type;location;lat;lon;timestamp;P1;durP1;ratioP1;P2;durP2;ratioP2
63406;SDS011;49543;45.892;10.838;2023-12-04T09:16:17;5.50;;;3.90;;
63406;SDS011;49543;45.892;10.838;2023-12-04T09:18:43;6.63;;;4.32;;
63406;SDS011;49543;45.892;10.838;2023-12-04T09:21:08;5.63;;;3.90;;
63406;SDS011;49543;45.892;10.838;2023-12-04T09:23:34;7.32;;;3.90;;
63406;SDS011;49543;45.892;10.838;2023-12-04T09:26:00;6.45;;;4.88;;
63406;SDS011;49543;45.892;10.838;2023-12-04T09:28:26;5.13;;;3.53;;
63406;SDS011;49543;45.892;10.838;2023-12-04T09:30:51;7.18;;;4.63;;
63406;SDS011;49543;45.892;10.838;2023-12-04T09:33:17;5.88;;;4.40;;
63406;SDS011;49543;45.892;10.838;2023-12-04T09:35:42;4.50;;;3.50;;
63406;SDS011;49543;45.892;10.838;2023-12-04T09:38:08;6.68;;;4.70;;
63406;SDS011;49543;45.892;10.838;2023-12-04T09:40:33;5.15;;;3.92;;
63406;SDS011;49543;45.892;10.838;2023-12-04T09:42:58;5.45;;;4.05;;
63406;SDS011;49543;45.892;10.838;2023-12-04T09:45:24;5.20;;;4.03;;
63406;SDS011;49543;45.892;10.838;2023-12-04T09:47:50;5.55;;;3.95;;
63406;SDS011;49543;45.892;10.838;2023-12-04T09:50:16;6.38;;;4.35;;
63406;SDS011;49543;45.892;10.838;2023-12-04T09:52:47;5.90;;;4.30;;
63406;SDS011;49543;45.892;10.838;2023-12-04T09:55:15;7.60;;;5.25;;
63406;SDS011;49543;45.892;10.838;2023-12-04T09:57:41;7.40;;;4.55;;
63406;SDS011;49543;45.892;10.838;2023-12-04T10:00:07;6.72;;;4.80;;
63406;SDS011;49543;45.892;10.838;2023-12-04T10:02:35;6.97;;;4.55;;
63406;SDS011;49543;45.892;10.838;2023-12-04T10:05:02;5.88;;;4.72;;
63406;SDS011;49543;45.892;10.838;2023-12-04T10:07:30;7.45;;;4.80;;
63406;SDS011;49543;45.892;10.838;2023-12-04T10:09:55;6.30;;;4.05;;
63406;SDS011;49543;45.892;10.838;2023-12-04T10:12:21;12.63;;;8.02;;
63406;SDS011;49543;45.892;10.838;2023-12-04T10:17:35;8.20;;;5.30;;
63406;SDS011;49543;45.892;10.838;2023-12-04T10:20:14;5.88;;;4.32;;
63406;SDS011;49543;45.892;10.838;2023-12-04T10:22:53;6.95;;;4.18;;
63406;SDS011;49543;45.892;10.838;2023-12-04T10:25:26;6.43;;;3.92;;
63406;SDS011;49543;45.892;10.838;2023-12-04T10:28:08;5.45;;;4.13;;
63406;SDS011;49543;45.892;10.838;2023-12-04T10:30:35;6.65;;;4.82;;
63406;SDS011;49543;45.892;10.838;2023-12-04T10:33:03;6.47;;;4.55;;
63406;SDS011;49543;45.892;10.838;2023-12-04T10:35:30;6.28;;;4.43;;
63406;SDS011;49543;45.892;10.838;2023-12-04T10:37:56;5.47;;;4.28;;
63406;SDS011;49543;45.892;10.838;2023-12-04T10:40:22;6.10;;;4.53;;
63406;SDS011;49543;45.892;10.838;2023-12-04T10:42:48;7.10;;;5.15;;
63406;SDS011;49543;45.892;10.838;2023-12-04T10:45:14;8.02;;;4.18;;
63406;SDS011;49543;45.892;10.838;2023-12-04T10:47:39;5.10;;;3.88;;
63406;SDS011;49543;45.892;10.838;2023-12-04T10:50:05;5.60;;;4.50;;
63406;SDS011;49543;45.892;10.838;2023-12-04T10:52:32;6.05;;;4.25;;
63406;SDS011;49543;45.892;10.838;2023-12-04T10:54:58;7.18;;;4.30;;
63406;SDS011;49543;45.892;10.838;2023-12-04T10:57:27;6.20;;;4.32;;
63406;SDS011;49543;45.892;10.838;2023-12-04T11:00:01;6.32;;;4.57;;
63406;SDS011;49543;45.892;10.838;2023-12-04T11:02:31;5.45;;;4.65;;
63406;SDS011;49543;45.892;10.838;2023-12-04T11:05:01;6.88;;;4.50;;
63406;SDS011;49543;45.892;10.838;2023-12-04T11:07:44;5.82;;;4.30;;
63406;SDS011;49543;45.892;10.838;2023-12-04T11:10:14;6.78;;;4.53;;
63406;SDS011;49543;45.892;10.838;2023-12-04T11:12:43;6.25;;;4.70;;
63406;SDS011;49543;45.892;10.838;2023-12-04T11:15:13;4.93;;;4.05;;
63406;SDS011;49543;45.892;10.838;2023-12-04T11:17:42;8.07;;;4.30;;
63406;SDS011;49543;45.892;10.838;2023-12-04T11:20:15;6.07;;;4.28;;
63406;SDS011;49543;45.892;10.838;2023-12-04T11:22:45;6.35;;;4.63;;
63406;SDS011;49543;45.892;10.838;2023-12-04T11:25:12;6.00;;;4.43;;
63406;SDS011;49543;45.892;10.838;2023-12-04T11:27:39;4.93;;;3.63;;
63406;SDS011;49543;45.892;10.838;2023-12-04T11:30:06;4.90;;;3.63;;
63406;SDS011;49543;45.892;10.838;2023-12-04T11:32:32;4.70;;;3.97;;
63406;SDS011;49543;45.892;10.838;2023-12-04T11:35:12;5.35;;;4.30;;
63406;SDS011;49543;45.892;10.838;2023-12-04T11:37:40;5.00;;;3.92;;
63406;SDS011;49543;45.892;10.838;2023-12-04T11:40:12;4.03;;;3.50;;
63406;SDS011;49543;45.892;10.838;2023-12-04T11:42:39;6.43;;;3.90;;
63406;SDS011;49543;45.892;10.838;2023-12-04T11:45:07;4.55;;;3.92;;
63406;SDS011;49543;45.892;10.838;2023-12-04T11:50:25;5.05;;;4.03;;
63406;SDS011;49543;45.892;10.838;2023-12-04T11:52:50;5.63;;;3.85;;
63406;SDS011;49543;45.892;10.838;2023-12-04T11:55:17;3.92;;;3.50;;
63406;SDS011;49543;45.892;10.838;2023-12-04T11:57:45;4.20;;;3.50;;
63406;SDS011;49543;45.892;10.838;2023-12-04T12:00:14;4.35;;;3.53;;
63406;SDS011;49543;45.892;10.838;2023-12-04T12:05:42;4.75;;;3.50;;
63406;SDS011;49543;45.892;10.838;2023-12-04T12:10:38;4.60;;;3.25;;
63406;SDS011;49543;45.892;10.838;2023-12-04T12:13:10;4.35;;;3.50;;
63406;SDS011;49543;45.892;10.838;2023-12-04T12:15:36;4.95;;;3.95;;
63406;SDS011;49543;45.892;10.838;2023-12-04T12:18:02;6.15;;;4.00;;
63406;SDS011;49543;45.892;10.838;2023-12-04T12:20:29;4.25;;;3.50;;
63406;SDS011;49543;45.892;10.838;2023-12-04T12:22:55;5.22;;;4.10;;
63406;SDS011;49543;45.892;10.838;2023-12-04T12:25:20;5.20;;;3.65;;
63406;SDS011;49543;45.892;10.838;2023-12-04T12:27:47;4.55;;;3.67;;
63406;SDS011;49543;45.892;10.838;2023-12-04T12:30:13;4.25;;;3.80;;
63406;SDS011;49543;45.892;10.838;2023-12-04T12:32:51;5.05;;;3.90;;
63406;SDS011;49543;45.892;10.838;2023-12-04T12:35:24;6.22;;;3.80;;
63406;SDS011;49543;45.892;10.838;2023-12-04T12:37:50;5.50;;;4.22;;
63406;SDS011;49543;45.892;10.838;2023-12-04T12:40:20;6.28;;;4.25;;
63406;SDS011;49543;45.892;10.838;2023-12-04T12:42:46;5.85;;;3.40;;
63406;SDS011;49543;45.892;10.838;2023-12-04T12:45:15;5.38;;;3.90;;
63406;SDS011;49543;45.892;10.838;2023-12-04T20:58:16;16.50;;;11.68;;
63406;SDS011;49543;45.892;10.838;2023-12-04T21:00:45;20.20;;;12.50;;
63406;SDS011;49543;45.892;10.838;2023-12-04T21:03:11;17.00;;;11.88;;
63406;SDS011;49543;45.892;10.838;2023-12-04T21:05:38;16.00;;;11.50;;
63406;SDS011;49543;45.892;10.838;2023-12-04T21:08:03;23.45;;;13.30;;
